sensor_id;sensor_type;location;lat;lon;timestamp;P1;durP1;ratioP1;P2;durP2;ratioP2
11396;SDS011;5754;43.726;7.416;2022-10-17T00:00:07;5.80;;;3.80;;
11396;SDS011;5754;43.726;7.416;2022-10-17T00:02:42;7.13;;;4.03;;
11396;SDS011;5754;43.726;7.416;2022-10-17T00:05:17;6.03;;;3.97;;
11396;SDS011;5754;43.726;7.416;2022-10-17T00:07:52;4.60;;;3.67;;
11396;SDS011;5754;43.726;7.416;2022-10-17T00:10:26;4.97;;;3.90;;
11396;SDS011;5754;43.726;7.416;2022-10-17T00:13:01;5.77;;;3.40;;
11396;SDS011;5754;43.726;7.416;2022-10-17T00:15:36;5.50;;;3.40;;
11396;SDS011;5754;43.726;7.416;2022-10-17T00:18:11;3.93;;;3.50;;
11396;SDS011;5754;43.726;7.416;2022-10-17T00:20:46;4.17;;;3.43;;
11396;SDS011;5754;43.726;7.416;2022-10-17T00:23:20;7.20;;;3.23;;
11396;SDS011;5754;43.726;7.416;2022-10-17T00:25:59;5.07;;;3.60;;
11396;SDS011;5754;43.726;7.416;2022-10-17T00:28:34;9.37;;;3.50;;
11396;SDS011;5754;43.726;7.416;2022-10-17T00:31:09;5.00;;;3.20;;
11396;SDS011;5754;43.726;7.416;2022-10-17T00:33:44;5.73;;;3.37;;
11396;SDS011;5754;43.726;7.416;2022-10-17T00:36:22;3.30;;;3.00;;
11396;SDS011;5754;43.726;7.416;2022-10-17T00:38:57;4.83;;;3.37;;
11396;SDS011;5754;43.726;7.416;2022-10-17T00:41:32;8.53;;;3.70;;
11396;SDS011;5754;43.726;7.416;2022-10-17T00:53:34;5.13;;;3.30;;
11396;SDS011;5754;43.726;7.416;2022-10-17T00:56:10;5.97;;;3.87;;
11396;SDS011;5754;43.726;7.416;2022-10-17T00:58:46;4.97;;;3.57;;
11396;SDS011;5754;43.726;7.416;2022-10-17T01:01:21;4.87;;;3.33;;
11396;SDS011;5754;43.726;7.416;2022-10-17T01:03:56;5.00;;;3.37;;
11396;SDS011;5754;43.726;7.416;2022-10-17T01:06:30;5.70;;;3.77;;
11396;SDS011;5754;43.726;7.416;2022-10-17T01:09:05;3.63;;;3.33;;
11396;SDS011;5754;43.726;7.416;2022-10-17T01:11:44;4.33;;;3.30;;
11396;SDS011;5754;43.726;7.416;2022-10-17T01:14:30;6.90;;;3.50;;
11396;SDS011;5754;43.726;7.416;2022-10-17T01:17:12;4.93;;;3.53;;
11396;SDS011;5754;43.726;7.416;2022-10-17T01:24:26;6.47;;;3.50;;
11396;SDS011;5754;43.726;7.416;2022-10-17T01:27:28;4.20;;;2.90;;
11396;SDS011;5754;43.726;7.416;2022-10-17T01:33:08;3.63;;;3.33;;
11396;SDS011;5754;43.726;7.416;2022-10-17T01:38:45;4.73;;;3.30;;
11396;SDS011;5754;43.726;7.416;2022-10-17T01:41:26;4.67;;;3.30;;
11396;SDS011;5754;43.726;7.416;2022-10-17T01:44:13;4.40;;;3.40;;
11396;SDS011;5754;43.726;7.416;2022-10-17T01:46:49;4.63;;;3.33;;
11396;SDS011;5754;43.726;7.416;2022-10-17T01:49:25;6.00;;;3.77;;
11396;SDS011;5754;43.726;7.416;2022-10-17T01:52:23;4.60;;;3.33;;
11396;SDS011;5754;43.726;7.416;2022-10-17T01:55:10;3.93;;;3.43;;
11396;SDS011;5754;43.726;7.416;2022-10-17T01:57:49;4.90;;;3.70;;
11396;SDS011;5754;43.726;7.416;2022-10-17T02:00:24;4.37;;;3.40;;
11396;SDS011;5754;43.726;7.416;2022-10-17T02:03:01;3.97;;;3.53;;
11396;SDS011;5754;43.726;7.416;2022-10-17T02:05:40;3.77;;;3.00;;
11396;SDS011;5754;43.726;7.416;2022-10-17T02:08:24;4.10;;;3.43;;
11396;SDS011;5754;43.726;7.416;2022-10-17T02:11:01;4.67;;;3.47;;
11396;SDS011;5754;43.726;7.416;2022-10-17T02:13:51;4.73;;;3.60;;
11396;SDS011;5754;43.726;7.416;2022-10-17T02:22:16;6.70;;;3.47;;
11396;SDS011;5754;43.726;7.416;2022-10-17T02:25:06;3.87;;;3.47;;
11396;SDS011;5754;43.726;7.416;2022-10-17T02:33:43;5.87;;;3.50;;
11396;SDS011;5754;43.726;7.416;2022-10-17T02:36:21;8.00;;;3.83;;
11396;SDS011;5754;43.726;7.416;2022-10-17T02:38:57;5.53;;;3.63;;
11396;SDS011;5754;43.726;7.416;2022-10-17T02:41:31;5.13;;;3.50;;
11396;SDS011;5754;43.726;7.416;2022-10-17T02:44:07;3.90;;;3.50;;
11396;SDS011;5754;43.726;7.416;2022-10-17T02:46:41;3.83;;;3.50;;
11396;SDS011;5754;43.726;7.416;2022-10-17T02:49:20;4.10;;;3.70;;
11396;SDS011;5754;43.726;7.416;2022-10-17T02:52:14;4.17;;;3.60;;
11396;SDS011;5754;43.726;7.416;2022-10-17T02:54:53;4.10;;;3.53;;
11396;SDS011;5754;43.726;7.416;2022-10-17T02:57:31;4.60;;;3.67;;
11396;SDS011;5754;43.726;7.416;2022-10-17T03:00:10;3.70;;;3.40;;
11396;SDS011;5754;43.726;7.416;2022-10-17T03:02:47;5.50;;;3.50;;
11396;SDS011;5754;43.726;7.416;2022-10-17T03:05:23;5.43;;;3.43;;
11396;SDS011;5754;43.726;7.416;2022-10-17T03:07:59;4.30;;;3.13;;
11396;SDS011;5754;43.726;7.416;2022-10-17T03:10:33;3.97;;;3.30;;
11396;SDS011;5754;43.726;7.416;2022-10-17T03:13:07;5.53;;;3.90;;
11396;SDS011;5754;43.726;7.416;2022-10-17T03:15:44;5.97;;;3.37;;
11396;SDS011;5754;43.726;7.416;2022-10-17T03:18:18;4.13;;;3.60;;
11396;SDS011;5754;43.726;7.416;2022-10-17T03:20:54;4.13;;;3.70;;
11396;SDS011;5754;43.726;7.416;2022-10-17T03:23:28;6.33;;;3.77;;
11396;SDS011;5754;43.726;7.416;2022-10-17T03:26:05;4.67;;;3.50;;
11396;SDS011;5754;43.726;7.416;2022-10-17T03:28:40;4.37;;;3.20;;
11396;SDS011;5754;43.726;7.416;2022-10-17T03:31:15;5.37;;;3.47;;
11396;SDS011;5754;43.726;7.416;2022-10-17T03:33:53;3.90;;;3.50;;
11396;SDS011;5754;43.726;7.416;2022-10-17T03:36:28;7.27;;;3.70;;
11396;SDS011;5754;43.726;7.416;2022-10-17T03:39:02;4.53;;;3.90;;
11396;SDS011;5754;43.726;7.416;2022-10-17T03:41:37;4.70;;;3.40;;
11396;SDS011;5754;43.726;7.416;2022-10-17T03:44:11;5.27;;;3.73;;
11396;SDS011;5754;43.726;7.416;2022-10-17T03:46:48;6.23;;;4.03;;
11396;SDS011;5754;43.726;7.416;2022-10-17T03:49:24;6.40;;;4.20;;
11396;SDS011;5754;43.726;7.416;2022-10-17T03:51:59;4.27;;;3.40;;
11396;SDS011;5754;43.726;7.416;2022-10-17T03:54:34;5.50;;;4.03;;
11396;SDS011;5754;43.726;7.416;2022-10-17T03:57:10;4.20;;;3.80;;
11396;SDS011;5754;43.726;7.416;2022-10-17T03:59:46;6.40;;;3.70;;
11396;SDS011;5754;43.726;7.416;2022-10-17T04:02:22;5.37;;;3.80;;
11396;SDS011;5754;43.726;7.416;2022-10-17T04:04:58;4.70;;;3.87;;
11396;SDS011;5754;43.726;7.416;2022-10-17T04:07:32;4.40;;;3.93;;
11396;SDS011;5754;43.726;7.416;2022-10-17T04:10:09;4.60;;;3.97;;
11396;SDS011;5754;43.726;7.416;2022-10-17T04:12:46;5.63;;;3.73;;
11396;SDS011;5754;43.726;7.416;2022-10-17T04:15:20;5.87;;;3.73;;
11396;SDS011;5754;43.726;7.416;2022-10-17T04:17:56;5.77;;;4.40;;
11396;SDS011;5754;43.726;7.416;2022-10-17T04:20:30;5.43;;;4.20;;
11396;SDS011;5754;43.726;7.416;2022-10-17T04:23:05;4.80;;;4.03;;
11396;SDS011;5754;43.726;7.416;2022-10-17T04:25:40;6.67;;;3.93;;
11396;SDS011;5754;43.726;7.416;2022-10-17T04:28:14;5.10;;;4.33;;
11396;SDS011;5754;43.726;7.416;2022-10-17T04:30:56;7.20;;;3.97;;
11396;SDS011;5754;43.726;7.416;2022-10-17T04:33:32;5.20;;;4.00;;
11396;SDS011;5754;43.726;7.416;2022-10-17T04:36:12;6.30;;;3.83;;
11396;SDS011;5754;43.726;7.416;2022-10-17T04:38:47;5.40;;;4.47;;
11396;SDS011;5754;43.726;7.416;2022-10-17T04:41:21;5.57;;;3.93;;
11396;SDS011;5754;43.726;7.416;2022-10-17T04:43:56;4.50;;;4.10;;
11396;SDS011;5754;43.726;7.416;2022-10-17T04:46:32;5.03;;;3.73;;
11396;SDS011;5754;43.726;7.416;2022-10-17T04:49:07;6.10;;;4.17;;
11396;SDS011;5754;43.726;7.416;2022-10-17T04:51:43;4.27;;;3.70;;
11396;SDS011;5754;43.726;7.416;2022-10-17T04:54:23;5.67;;;4.33;;
11396;SDS011;5754;43.726;7.416;2022-10-17T04:57:03;6.77;;;3.50;;
11396;SDS011;5754;43.726;7.416;2022-10-17T04:59:37;7.40;;;4.10;;
11396;SDS011;5754;43.726;7.416;2022-10-17T05:05:09;6.83;;;3.67;;
11396;SDS011;5754;43.726;7.416;2022-10-17T05:07:43;3.40;;;3.17;;
11396;SDS011;5754;43.726;7.416;2022-10-17T05:10:25;4.07;;;3.60;;
11396;SDS011;5754;43.726;7.416;2022-10-17T05:13:00;4.67;;;3.80;;
11396;SDS011;5754;43.726;7.416;2022-10-17T05:15:37;4.90;;;3.57;;
11396;SDS011;5754;43.726;7.416;2022-10-17T05:18:11;5.20;;;3.50;;
11396;SDS011;5754;43.726;7.416;2022-10-17T05:20:47;4.33;;;3.90;;
11396;SDS011;5754;43.726;7.416;2022-10-17T05:23:22;4.77;;;3.80;;
11396;SDS011;5754;43.726;7.416;2022-10-17T05:25:56;4.53;;;3.83;;
11396;SDS011;5754;43.726;7.416;2022-10-17T05:28:30;4.23;;;3.70;;
11396;SDS011;5754;43.726;7.416;2022-10-17T05:31:07;4.37;;;3.97;;
11396;SDS011;5754;43.726;7.416;2022-10-17T05:33:42;4.30;;;3.77;;
11396;SDS011;5754;43.726;7.416;2022-10-17T05:36:19;4.73;;;4.20;;
11396;SDS011;5754;43.726;7.416;2022-10-17T05:38:53;5.27;;;4.43;;
11396;SDS011;5754;43.726;7.416;2022-10-17T05:41:28;6.60;;;4.50;;
11396;SDS011;5754;43.726;7.416;2022-10-17T05:44:03;4.57;;;4.17;;
11396;SDS011;5754;43.726;7.416;2022-10-17T05:46:46;5.67;;;4.50;;
11396;SDS011;5754;43.726;7.416;2022-10-17T05:49:23;6.30;;;4.53;;
11396;SDS011;5754;43.726;7.416;2022-10-17T05:52:06;7.30;;;4.40;;
11396;SDS011;5754;43.726;7.416;2022-10-17T05:54:48;6.23;;;4.80;;
11396;SDS011;5754;43.726;7.416;2022-10-17T05:57:24;6.00;;;4.83;;
11396;SDS011;5754;43.726;7.416;2022-10-17T05:59:59;5.27;;;4.70;;
11396;SDS011;5754;43.726;7.416;2022-10-17T06:02:47;9.63;;;5.50;;
11396;SDS011;5754;43.726;7.416;2022-10-17T06:05:22;9.90;;;5.57;;
11396;SDS011;5754;43.726;7.416;2022-10-17T06:07:57;5.93;;;4.87;;
11396;SDS011;5754;43.726;7.416;2022-10-17T06:10:33;7.13;;;5.57;;
11396;SDS011;5754;43.726;7.416;2022-10-17T06:13:07;15.17;;;5.70;;
11396;SDS011;5754;43.726;7.416;2022-10-17T06:15:42;15.57;;;5.53;;
11396;SDS011;5754;43.726;7.416;2022-10-17T06:18:18;12.93;;;5.63;;
11396;SDS011;5754;43.726;7.416;2022-10-17T06:20:53;8.63;;;5.03;;
11396;SDS011;5754;43.726;7.416;2022-10-17T06:23:27;10.65;;;6.10;;
11396;SDS011;5754;43.726;7.416;2022-10-17T06:26:11;14.48;;;5.30;;
11396;SDS011;5754;43.726;7.416;2022-10-17T06:28:46;11.75;;;5.80;;
11396;SDS011;5754;43.726;7.416;2022-10-17T06:31:21;15.65;;;5.97;;
11396;SDS011;5754;43.726;7.416;2022-10-17T06:33:55;12.30;;;5.97;;
11396;SDS011;5754;43.726;7.416;2022-10-17T06:36:29;13.45;;;5.65;;
11396;SDS011;5754;43.726;7.416;2022-10-17T06:39:05;12.75;;;5.10;;
11396;SDS011;5754;43.726;7.416;2022-10-17T06:41:43;7.82;;;4.62;;
11396;SDS011;5754;43.726;7.416;2022-10-17T06:44:24;10.85;;;5.32;;
11396;SDS011;5754;43.726;7.416;2022-10-17T06:50:34;9.73;;;4.90;;
11396;SDS011;5754;43.726;7.416;2022-10-17T06:53:32;11.70;;;4.78;;
11396;SDS011;5754;43.726;7.416;2022-10-17T06:56:34;9.25;;;4.87;;
11396;SDS011;5754;43.726;7.416;2022-10-17T06:59:27;7.87;;;4.47;;
11396;SDS011;5754;43.726;7.416;2022-10-17T07:03:38;9.43;;;3.90;;
11396;SDS011;5754;43.726;7.416;2022-10-17T07:06:14;6.82;;;4.32;;
11396;SDS011;5754;43.726;7.416;2022-10-17T07:08:50;8.00;;;4.40;;
11396;SDS011;5754;43.726;7.416;2022-10-17T07:11:25;8.77;;;4.03;;
11396;SDS011;5754;43.726;7.416;2022-10-17T07:14:00;5.20;;;3.70;;
11396;SDS011;5754;43.726;7.416;2022-10-17T07:16:36;4.35;;;3.80;;
11396;SDS011;5754;43.726;7.416;2022-10-17T07:19:18;5.32;;;3.85;;
11396;SDS011;5754;43.726;7.416;2022-10-17T07:21:53;4.78;;;3.65;;
11396;SDS011;5754;43.726;7.416;2022-10-17T07:24:28;4.28;;;3.80;;
11396;SDS011;5754;43.726;7.416;2022-10-17T07:27:11;5.55;;;3.97;;
11396;SDS011;5754;43.726;7.416;2022-10-17T07:29:46;5.37;;;3.62;;
11396;SDS011;5754;43.726;7.416;2022-10-17T07:32:30;9.63;;;4.05;;
11396;SDS011;5754;43.726;7.416;2022-10-17T07:35:05;6.05;;;3.70;;
11396;SDS011;5754;43.726;7.416;2022-10-17T07:37:40;5.28;;;3.33;;
11396;SDS011;5754;43.726;7.416;2022-10-17T07:40:15;5.28;;;3.58;;
11396;SDS011;5754;43.726;7.416;2022-10-17T07:42:49;3.80;;;3.28;;
11396;SDS011;5754;43.726;7.416;2022-10-17T07:45:25;6.00;;;4.05;;
11396;SDS011;5754;43.726;7.416;2022-10-17T07:48:00;5.25;;;3.60;;
11396;SDS011;5754;43.726;7.416;2022-10-17T07:50:37;5.05;;;3.40;;
11396;SDS011;5754;43.726;7.416;2022-10-17T07:53:12;3.90;;;3.50;;
11396;SDS011;5754;43.726;7.416;2022-10-17T07:55:47;7.45;;;3.62;;
11396;SDS011;5754;43.726;7.416;2022-10-17T07:58:22;3.90;;;3.47;;
11396;SDS011;5754;43.726;7.416;2022-10-17T08:01:03;8.27;;;3.70;;
11396;SDS011;5754;43.726;7.416;2022-10-17T08:03:40;5.28;;;3.58;;
11396;SDS011;5754;43.726;7.416;2022-10-17T08:06:16;3.67;;;3.33;;
11396;SDS011;5754;43.726;7.416;2022-10-17T08:08:50;3.67;;;3.40;;
11396;SDS011;5754;43.726;7.416;2022-10-17T08:11:24;3.67;;;3.30;;
11396;SDS011;5754;43.726;7.416;2022-10-17T08:13:59;3.72;;;3.42;;
11396;SDS011;5754;43.726;7.416;2022-10-17T08:16:33;3.92;;;3.40;;
11396;SDS011;5754;43.726;7.416;2022-10-17T08:19:07;3.70;;;3.40;;
11396;SDS011;5754;43.726;7.416;2022-10-17T08:21:44;5.37;;;3.70;;
11396;SDS011;5754;43.726;7.416;2022-10-17T08:24:19;5.45;;;3.45;;
11396;SDS011;5754;43.726;7.416;2022-10-17T08:26:53;5.47;;;3.83;;
11396;SDS011;5754;43.726;7.416;2022-10-17T08:29:30;13.18;;;4.15;;
11396;SDS011;5754;43.726;7.416;2022-10-17T08:32:05;6.22;;;3.65;;
11396;SDS011;5754;43.726;7.416;2022-10-17T08:34:43;7.57;;;3.50;;
11396;SDS011;5754;43.726;7.416;2022-10-17T08:37:17;5.68;;;3.67;;
11396;SDS011;5754;43.726;7.416;2022-10-17T08:39:52;5.45;;;3.40;;
11396;SDS011;5754;43.726;7.416;2022-10-17T08:42:33;3.97;;;3.45;;
11396;SDS011;5754;43.726;7.416;2022-10-17T08:49:46;8.13;;;3.92;;
11396;SDS011;5754;43.726;7.416;2022-10-17T08:52:29;5.00;;;3.42;;
11396;SDS011;5754;43.726;7.416;2022-10-17T08:55:16;4.03;;;3.58;;
11396;SDS011;5754;43.726;7.416;2022-10-17T08:57:51;4.20;;;3.72;;
11396;SDS011;5754;43.726;7.416;2022-10-17T09:00:25;6.00;;;3.83;;
11396;SDS011;5754;43.726;7.416;2022-10-17T09:04:35;4.20;;;3.70;;
11396;SDS011;5754;43.726;7.416;2022-10-17T09:07:14;4.22;;;3.83;;
11396;SDS011;5754;43.726;7.416;2022-10-17T09:16:00;5.15;;;3.62;;
11396;SDS011;5754;43.726;7.416;2022-10-17T09:18:38;6.72;;;3.50;;
11396;SDS011;5754;43.726;7.416;2022-10-17T09:24:53;5.07;;;3.30;;
11396;SDS011;5754;43.726;7.416;2022-10-17T09:27:42;5.20;;;3.70;;
11396;SDS011;5754;43.726;7.416;2022-10-17T09:30:35;6.97;;;4.00;;
11396;SDS011;5754;43.726;7.416;2022-10-17T09:33:19;4.85;;;3.47;;
11396;SDS011;5754;43.726;7.416;2022-10-17T09:35:57;4.55;;;3.45;;
11396;SDS011;5754;43.726;7.416;2022-10-17T09:38:38;4.20;;;3.80;;
11396;SDS011;5754;43.726;7.416;2022-10-17T09:41:21;4.47;;;3.58;;
11396;SDS011;5754;43.726;7.416;2022-10-17T09:44:20;5.47;;;4.15;;
11396;SDS011;5754;43.726;7.416;2022-10-17T09:53:09;3.60;;;3.17;;
11396;SDS011;5754;43.726;7.416;2022-10-17T09:55:47;4.87;;;3.60;;
11396;SDS011;5754;43.726;7.416;2022-10-17T09:58:23;5.00;;;3.60;;
11396;SDS011;5754;43.726;7.416;2022-10-17T10:01:26;8.02;;;3.90;;
11396;SDS011;5754;43.726;7.416;2022-10-17T10:04:11;5.37;;;4.10;;
11396;SDS011;5754;43.726;7.416;2022-10-17T10:07:02;4.93;;;4.37;;
11396;SDS011;5754;43.726;7.416;2022-10-17T10:09:37;4.90;;;3.45;;
11396;SDS011;5754;43.726;7.416;2022-10-17T10:12:17;5.95;;;3.97;;
11396;SDS011;5754;43.726;7.416;2022-10-17T10:14:53;4.40;;;3.67;;
11396;SDS011;5754;43.726;7.416;2022-10-17T10:17:39;4.10;;;3.70;;
11396;SDS011;5754;43.726;7.416;2022-10-17T10:20:24;4.43;;;3.67;;
11396;SDS011;5754;43.726;7.416;2022-10-17T10:23:16;4.35;;;3.53;;
11396;SDS011;5754;43.726;7.416;2022-10-17T10:25:56;5.10;;;4.00;;
11396;SDS011;5754;43.726;7.416;2022-10-17T10:28:32;3.87;;;3.55;;
11396;SDS011;5754;43.726;7.416;2022-10-17T10:31:08;3.72;;;3.42;;
11396;SDS011;5754;43.726;7.416;2022-10-17T10:33:43;4.35;;;3.58;;
11396;SDS011;5754;43.726;7.416;2022-10-17T10:36:20;4.75;;;4.35;;
11396;SDS011;5754;43.726;7.416;2022-10-17T10:38:55;6.28;;;4.70;;
11396;SDS011;5754;43.726;7.416;2022-10-17T10:41:44;4.97;;;4.57;;
11396;SDS011;5754;43.726;7.416;2022-10-17T10:44:20;4.68;;;4.28;;
11396;SDS011;5754;43.726;7.416;2022-10-17T10:49:51;5.85;;;5.25;;
11396;SDS011;5754;43.726;7.416;2022-10-17T10:52:46;12.80;;;10.90;;
11396;SDS011;5754;43.726;7.416;2022-10-17T10:58:26;5.75;;;5.15;;
11396;SDS011;5754;43.726;7.416;2022-10-17T11:01:14;7.47;;;6.10;;
11396;SDS011;5754;43.726;7.416;2022-10-17T11:10:22;6.30;;;5.70;;
11396;SDS011;5754;43.726;7.416;2022-10-17T11:13:04;7.80;;;6.95;;
11396;SDS011;5754;43.726;7.416;2022-10-17T11:15:55;7.78;;;6.97;;
11396;SDS011;5754;43.726;7.416;2022-10-17T11:21:37;12.52;;;7.90;;
11396;SDS011;5754;43.726;7.416;2022-10-17T11:24:23;10.57;;;7.50;;
11396;SDS011;5754;43.726;7.416;2022-10-17T11:27:02;12.10;;;8.98;;
11396;SDS011;5754;43.726;7.416;2022-10-17T11:29:38;13.13;;;10.60;;
11396;SDS011;5754;43.726;7.416;2022-10-17T11:32:18;11.12;;;10.10;;
11396;SDS011;5754;43.726;7.416;2022-10-17T11:35:06;13.30;;;11.90;;
11396;SDS011;5754;43.726;7.416;2022-10-17T11:37:51;15.13;;;12.80;;
11396;SDS011;5754;43.726;7.416;2022-10-17T11:40:30;15.27;;;13.77;;
11396;SDS011;5754;43.726;7.416;2022-10-17T11:43:14;14.23;;;12.70;;
11396;SDS011;5754;43.726;7.416;2022-10-17T11:45:54;16.35;;;13.80;;
11396;SDS011;5754;43.726;7.416;2022-10-17T11:48:33;15.82;;;14.05;;
11396;SDS011;5754;43.726;7.416;2022-10-17T11:51:10;21.17;;;18.92;;
11396;SDS011;5754;43.726;7.416;2022-10-17T11:54:23;20.48;;;17.20;;
11396;SDS011;5754;43.726;7.416;2022-10-17T12:05:44;22.25;;;19.95;;
11396;SDS011;5754;43.726;7.416;2022-10-17T12:08:35;21.95;;;19.83;;
11396;SDS011;5754;43.726;7.416;2022-10-17T12:11:26;21.62;;;19.30;;
11396;SDS011;5754;43.726;7.416;2022-10-17T12:14:02;20.70;;;18.52;;
11396;SDS011;5754;43.726;7.416;2022-10-17T12:16:41;22.55;;;20.23;;
11396;SDS011;5754;43.726;7.416;2022-10-17T12:19:20;20.15;;;18.10;;
11396;SDS011;5754;43.726;7.416;2022-10-17T12:22:01;22.15;;;19.75;;
11396;SDS011;5754;43.726;7.416;2022-10-17T12:24:40;23.42;;;19.02;;
11396;SDS011;5754;43.726;7.416;2022-10-17T12:27:37;21.67;;;19.30;;
11396;SDS011;5754;43.726;7.416;2022-10-17T12:30:19;21.10;;;18.90;;
11396;SDS011;5754;43.726;7.416;2022-10-17T12:33:37;22.27;;;17.90;;
11396;SDS011;5754;43.726;7.416;2022-10-17T12:42:29;18.27;;;16.50;;
11396;SDS011;5754;43.726;7.416;2022-10-17T12:45:32;16.08;;;14.40;;
11396;SDS011;5754;43.726;7.416;2022-10-17T12:57:58;13.13;;;11.82;;
11396;SDS011;5754;43.726;7.416;2022-10-17T13:00:53;11.95;;;10.52;;
11396;SDS011;5754;43.726;7.416;2022-10-17T13:03:58;14.25;;;12.13;;
11396;SDS011;5754;43.726;7.416;2022-10-17T13:06:45;10.57;;;9.18;;
11396;SDS011;5754;43.726;7.416;2022-10-17T13:09:31;12.75;;;9.82;;
11396;SDS011;5754;43.726;7.416;2022-10-17T13:12:09;12.10;;;9.70;;
11396;SDS011;5754;43.726;7.416;2022-10-17T13:14:46;16.27;;;10.00;;
11396;SDS011;5754;43.726;7.416;2022-10-17T13:17:22;9.05;;;7.50;;
11396;SDS011;5754;43.726;7.416;2022-10-17T13:19:57;11.27;;;6.20;;
11396;SDS011;5754;43.726;7.416;2022-10-17T13:22:32;7.90;;;6.57;;
11396;SDS011;5754;43.726;7.416;2022-10-17T13:25:13;9.57;;;6.85;;
11396;SDS011;5754;43.726;7.416;2022-10-17T13:27:49;8.27;;;6.50;;
11396;SDS011;5754;43.726;7.416;2022-10-17T13:30:27;9.70;;;6.53;;
11396;SDS011;5754;43.726;7.416;2022-10-17T13:33:15;8.77;;;5.90;;
11396;SDS011;5754;43.726;7.416;2022-10-17T13:35:52;6.82;;;5.68;;
11396;SDS011;5754;43.726;7.416;2022-10-17T13:38:33;6.57;;;4.62;;
11396;SDS011;5754;43.726;7.416;2022-10-17T13:41:10;5.50;;;4.63;;
11396;SDS011;5754;43.726;7.416;2022-10-17T13:44:06;6.85;;;4.68;;
11396;SDS011;5754;43.726;7.416;2022-10-17T13:46:44;6.75;;;4.32;;
11396;SDS011;5754;43.726;7.416;2022-10-17T13:49:21;5.40;;;4.47;;
11396;SDS011;5754;43.726;7.416;2022-10-17T13:51:55;5.03;;;4.53;;
11396;SDS011;5754;43.726;7.416;2022-10-17T13:54:42;8.17;;;5.17;;
11396;SDS011;5754;43.726;7.416;2022-10-17T13:57:22;5.50;;;4.75;;
11396;SDS011;5754;43.726;7.416;2022-10-17T13:59:58;6.15;;;4.47;;
11396;SDS011;5754;43.726;7.416;2022-10-17T14:02:34;6.80;;;4.73;;
11396;SDS011;5754;43.726;7.416;2022-10-17T14:05:13;4.70;;;4.00;;
11396;SDS011;5754;43.726;7.416;2022-10-17T14:08:00;5.33;;;4.17;;
11396;SDS011;5754;43.726;7.416;2022-10-17T14:10:53;7.00;;;4.07;;
11396;SDS011;5754;43.726;7.416;2022-10-17T14:13:29;9.35;;;4.50;;
11396;SDS011;5754;43.726;7.416;2022-10-17T14:16:09;4.80;;;3.72;;
11396;SDS011;5754;43.726;7.416;2022-10-17T14:18:45;7.57;;;3.70;;
11396;SDS011;5754;43.726;7.416;2022-10-17T14:21:23;5.97;;;3.40;;
11396;SDS011;5754;43.726;7.416;2022-10-17T14:24:34;5.87;;;3.53;;
11396;SDS011;5754;43.726;7.416;2022-10-17T14:29:55;3.70;;;3.23;;
11396;SDS011;5754;43.726;7.416;2022-10-17T14:32:34;7.17;;;4.03;;
11396;SDS011;5754;43.726;7.416;2022-10-17T14:35:15;3.72;;;3.42;;
11396;SDS011;5754;43.726;7.416;2022-10-17T14:38:03;5.80;;;3.90;;
11396;SDS011;5754;43.726;7.416;2022-10-17T14:40:47;4.20;;;3.23;;
11396;SDS011;5754;43.726;7.416;2022-10-17T14:43:22;4.73;;;3.70;;
11396;SDS011;5754;43.726;7.416;2022-10-17T14:46:01;5.68;;;3.47;;
11396;SDS011;5754;43.726;7.416;2022-10-17T14:48:36;5.63;;;3.47;;
11396;SDS011;5754;43.726;7.416;2022-10-17T14:51:15;5.80;;;3.80;;
11396;SDS011;5754;43.726;7.416;2022-10-17T14:54:03;4.70;;;3.85;;
11396;SDS011;5754;43.726;7.416;2022-10-17T14:56:41;4.07;;;3.40;;
11396;SDS011;5754;43.726;7.416;2022-10-17T14:59:16;6.17;;;3.90;;
11396;SDS011;5754;43.726;7.416;2022-10-17T15:02:03;7.00;;;3.63;;
11396;SDS011;5754;43.726;7.416;2022-10-17T15:04:38;3.67;;;3.28;;
11396;SDS011;5754;43.726;7.416;2022-10-17T15:07:13;4.73;;;3.40;;
11396;SDS011;5754;43.726;7.416;2022-10-17T15:09:49;7.17;;;3.63;;
11396;SDS011;5754;43.726;7.416;2022-10-17T15:12:24;6.20;;;5.10;;
11396;SDS011;5754;43.726;7.416;2022-10-17T15:14:59;4.33;;;3.83;;
11396;SDS011;5754;43.726;7.416;2022-10-17T15:17:34;5.13;;;3.80;;
11396;SDS011;5754;43.726;7.416;2022-10-17T15:20:12;4.62;;;4.00;;
11396;SDS011;5754;43.726;7.416;2022-10-17T15:22:48;8.50;;;4.20;;
11396;SDS011;5754;43.726;7.416;2022-10-17T15:25:22;6.23;;;4.30;;
11396;SDS011;5754;43.726;7.416;2022-10-17T15:27:57;5.03;;;4.33;;
11396;SDS011;5754;43.726;7.416;2022-10-17T15:30:33;5.70;;;4.13;;
11396;SDS011;5754;43.726;7.416;2022-10-17T15:33:08;7.33;;;4.50;;
11396;SDS011;5754;43.726;7.416;2022-10-17T15:35:42;6.47;;;4.67;;
11396;SDS011;5754;43.726;7.416;2022-10-17T15:38:17;5.93;;;4.27;;
11396;SDS011;5754;43.726;7.416;2022-10-17T15:40:51;6.80;;;4.60;;
11396;SDS011;5754;43.726;7.416;2022-10-17T15:43:26;5.77;;;4.67;;
11396;SDS011;5754;43.726;7.416;2022-10-17T15:46:01;6.47;;;4.77;;
11396;SDS011;5754;43.726;7.416;2022-10-17T15:48:36;6.57;;;4.90;;
11396;SDS011;5754;43.726;7.416;2022-10-17T15:51:11;6.60;;;4.30;;
11396;SDS011;5754;43.726;7.416;2022-10-17T15:53:45;5.30;;;4.80;;
11396;SDS011;5754;43.726;7.416;2022-10-17T15:56:30;8.40;;;5.00;;
11396;SDS011;5754;43.726;7.416;2022-10-17T15:59:15;8.30;;;4.70;;
11396;SDS011;5754;43.726;7.416;2022-10-17T16:01:53;7.30;;;5.20;;
11396;SDS011;5754;43.726;7.416;2022-10-17T16:04:28;6.90;;;5.30;;
11396;SDS011;5754;43.726;7.416;2022-10-17T16:07:05;7.53;;;5.37;;
11396;SDS011;5754;43.726;7.416;2022-10-17T16:09:40;9.03;;;5.37;;
11396;SDS011;5754;43.726;7.416;2022-10-17T16:12:16;5.73;;;4.97;;
11396;SDS011;5754;43.726;7.416;2022-10-17T16:14:51;5.43;;;4.93;;
11396;SDS011;5754;43.726;7.416;2022-10-17T16:17:26;6.80;;;5.07;;
11396;SDS011;5754;43.726;7.416;2022-10-17T16:20:00;7.53;;;4.97;;
11396;SDS011;5754;43.726;7.416;2022-10-17T16:22:35;6.93;;;5.80;;
11396;SDS011;5754;43.726;7.416;2022-10-17T16:25:20;6.83;;;5.83;;
11396;SDS011;5754;43.726;7.416;2022-10-17T16:28:01;8.73;;;4.70;;
11396;SDS011;5754;43.726;7.416;2022-10-17T16:30:41;8.37;;;4.87;;
11396;SDS011;5754;43.726;7.416;2022-10-17T16:33:17;6.17;;;4.90;;
11396;SDS011;5754;43.726;7.416;2022-10-17T16:35:52;9.33;;;5.40;;
11396;SDS011;5754;43.726;7.416;2022-10-17T16:38:26;7.23;;;5.40;;
11396;SDS011;5754;43.726;7.416;2022-10-17T16:41:02;5.73;;;4.60;;
11396;SDS011;5754;43.726;7.416;2022-10-17T16:43:38;7.97;;;5.00;;
11396;SDS011;5754;43.726;7.416;2022-10-17T16:46:12;6.97;;;5.47;;
11396;SDS011;5754;43.726;7.416;2022-10-17T16:48:49;7.30;;;4.47;;
11396;SDS011;5754;43.726;7.416;2022-10-17T16:51:28;6.97;;;4.70;;
11396;SDS011;5754;43.726;7.416;2022-10-17T16:54:03;9.70;;;5.70;;
11396;SDS011;5754;43.726;7.416;2022-10-17T16:56:39;7.53;;;5.07;;
11396;SDS011;5754;43.726;7.416;2022-10-17T16:59:14;5.87;;;4.70;;
11396;SDS011;5754;43.726;7.416;2022-10-17T17:01:51;8.77;;;4.67;;
11396;SDS011;5754;43.726;7.416;2022-10-17T17:04:25;5.77;;;4.60;;
11396;SDS011;5754;43.726;7.416;2022-10-17T17:07:02;7.90;;;4.70;;
11396;SDS011;5754;43.726;7.416;2022-10-17T17:09:37;5.80;;;5.10;;
11396;SDS011;5754;43.726;7.416;2022-10-17T17:12:14;6.53;;;4.53;;
11396;SDS011;5754;43.726;7.416;2022-10-17T17:14:52;9.37;;;5.37;;
11396;SDS011;5754;43.726;7.416;2022-10-17T17:17:29;10.97;;;4.93;;
11396;SDS011;5754;43.726;7.416;2022-10-17T17:20:10;7.23;;;5.10;;
11396;SDS011;5754;43.726;7.416;2022-10-17T17:22:44;8.23;;;5.27;;
11396;SDS011;5754;43.726;7.416;2022-10-17T17:25:20;6.43;;;5.10;;
11396;SDS011;5754;43.726;7.416;2022-10-17T17:28:00;6.37;;;4.70;;
11396;SDS011;5754;43.726;7.416;2022-10-17T17:30:37;10.00;;;5.80;;
11396;SDS011;5754;43.726;7.416;2022-10-17T17:33:13;7.90;;;5.30;;
11396;SDS011;5754;43.726;7.416;2022-10-17T17:35:52;8.10;;;5.40;;
11396;SDS011;5754;43.726;7.416;2022-10-17T17:38:28;8.90;;;5.60;;
11396;SDS011;5754;43.726;7.416;2022-10-17T17:41:03;8.30;;;5.23;;
11396;SDS011;5754;43.726;7.416;2022-10-17T17:43:37;12.13;;;6.70;;
11396;SDS011;5754;43.726;7.416;2022-10-17T17:46:12;8.20;;;5.73;;
11396;SDS011;5754;43.726;7.416;2022-10-17T17:48:48;9.50;;;7.00;;
11396;SDS011;5754;43.726;7.416;2022-10-17T17:51:23;7.60;;;5.27;;